Thunder radar more information blitzortung!


Radar de pluja more information rain snow radar


Visita la nostra xarxa de llocs de meteo:

Template documentation
and downloads

And another site



No particular awareness of the weather is required.    There are no Weather-warnings

Pagina Historial Weather Underground text

Diari Resum Desembre 11, 2017 Unitats:  Mètric    Imperial   Tant
« Previous Dia
SegĂźent Dia »
Diari Setmana Mensual Anual Personalitzada
  Maxima: Minima: Media:
Temperatura: -17.8 °C -15.2 °C -12 °C
Punt de rosada: -17.8 °C -18.7 °C -15.9 °C
Humitat: Humidity % 53 % 61 %
Wind Speed: 0 km/h 0 km/h 9.8 km/h
RĂ fegues de vent: 0 km/h - -
Vent:- - WSW
Pression baro: 0 hPa 33419.8 hPa -
Precipitacions: 0 mm    
Historical Graphs
 
 
Dades de taula per Desembre 11, 2017
Temps Temperatura Punt de rosada Pression baro Vent Wind Speed RĂ fegues de vent Humitat Rainfall Rate (Hourly)
-17.8 °C -17.8 °C 0 hPa Calm     Humidity % 0 mm
00:00 -10.2 °C -12.6 °C 33453.7 hPa SW 18.2 km/h 20.8 km/h 75 % 0 mm
00:01 -11.7 °C -15.4 °C 33683.9 hPa SW 8 km/h 8 km/h 63 % 0 mm
00:10 -10.3 °C -12.6 °C 33453.7 hPa SW 12.9 km/h 31.1 km/h 77 % 0 mm
00:11 -11.8 °C -15.5 °C 33683.9 hPa WSW 9 km/h 9 km/h 63 % 0 mm
00:30 -10.5 °C -12.4 °C 33419.8 hPa SW 15.6 km/h 20.8 km/h 79 % 0 mm
00:40 -10.6 °C -12.6 °C 33453.7 hPa SW 7.7 km/h 20.8 km/h 79 % 0 mm
01:20 -10.3 °C -12.6 °C 33453.7 hPa WSW 15.6 km/h 28.5 km/h 76 % 0 mm
01:30 -10.2 °C -12.7 °C 33453.7 hPa WSW 15.6 km/h 38.8 km/h 74 % 0 mm
01:40 -10.2 °C -12.7 °C 33453.7 hPa WSW 15.6 km/h 18.2 km/h 74 % 0 mm
02:10 -10 °C -12.7 °C 33419.8 hPa SW 12.9 km/h 20.8 km/h 72 % 0 mm
02:20 -10 °C -12.7 °C 33453.7 hPa SSW 12.9 km/h 15.6 km/h 72 % 0 mm
02:30 -9.9 °C -12.6 °C 33453.7 hPa SW 18.2 km/h 18.2 km/h 73 % 0 mm
02:40 -9.8 °C -12.5 °C 33453.7 hPa SW 12.9 km/h 20.8 km/h 73 % 0 mm
02:50 -9.9 °C -12.6 °C 33453.7 hPa WSW 15.6 km/h 18.2 km/h 73 % 0 mm
03:00 -9.9 °C -12.4 °C 33453.7 hPa SW 12.9 km/h 15.6 km/h 74 % 0 mm
03:10 -9.9 °C -12.3 °C 33453.7 hPa SSW 12.9 km/h 20.8 km/h 75 % 0 mm
03:20 -9.9 °C -12.4 °C 33453.7 hPa SSW 7.7 km/h 15.6 km/h 75 % 0 mm
03:30 -9.9 °C -12.4 °C 33453.7 hPa SW 15.6 km/h 23.3 km/h 75 % 0 mm
03:50 -10.2 °C -12.4 °C 33453.7 hPa SW 15.6 km/h 15.6 km/h 76 % 0 mm
04:00 -10.5 °C -12.6 °C 33453.7 hPa WSW 15.6 km/h 23.3 km/h 78 % 0 mm
04:10 -10.8 °C -12.8 °C 33477.4 hPa WSW 7.7 km/h 10.3 km/h 78 % 0 mm
04:30 -11.1 °C -13.1 °C 33477.4 hPa WSW 7.7 km/h 10.3 km/h 78 % 0 mm
04:40 -11.1 °C -13.1 °C 33477.4 hPa SW 5.1 km/h 10.3 km/h 79 % 0 mm
10:43 -11.2 °C -13.1 °C 33477.4 hPa WSW 9 km/h 9 km/h 79 % 0 mm
10:48 -11.2 °C -13.1 °C 33524.8 hPa WSW 4.2 km/h 4.2 km/h 79 % 0 mm
10:53 -11.2 °C -13.1 °C 33524.8 hPa WSW 4.2 km/h 9.3 km/h 79 % 0 mm
10:58 -11.2 °C -13.2 °C 33524.8 hPa WSW 6.8 km/h 6.8 km/h 79 % 0 mm
11:03 -11.2 °C -13.2 °C 33524.8 hPa SW 9.3 km/h 9.3 km/h 79 % 0 mm
11:08 -11.3 °C -13.2 °C 33524.8 hPa WNW 9.3 km/h 9.3 km/h 79 % 0 mm
11:13 -11.3 °C -13.3 °C 33477.4 hPa WSW 17.9 km/h 17.9 km/h 79 % 0 mm
11:18 -11.3 °C -13.3 °C 33477.4 hPa SW 9 km/h 9 km/h 79 % 0 mm
11:23 -11.4 °C -13.3 °C 33477.4 hPa SSW 6 km/h 8 km/h 79 % 0 mm
11:28 -11.4 °C -13.3 °C 33524.8 hPa West 9 km/h 12.2 km/h 79 % 0 mm
11:29 -11.4 °C -13.3 °C 33524.8 hPa West 9 km/h 12.2 km/h 79 % 0 mm
11:34 -11.4 °C -13.4 °C 33524.8 hPa WNW 12.2 km/h 12.2 km/h 78 % 0 mm
11:39 -11.3 °C -13.4 °C 33524.8 hPa WSW 4.2 km/h 5.6 km/h 78 % 0 mm
11:44 -11.3 °C -13.3 °C 33524.8 hPa WSW 7.6 km/h 7.6 km/h 78 % 0 mm
11:49 -11.3 °C -13.4 °C 33524.8 hPa WSW 7.6 km/h 7.6 km/h 77 % 0 mm
11:54 -11.2 °C -13.4 °C 33524.8 hPa WSW 7.6 km/h 7.6 km/h 77 % 0 mm
11:59 -11.2 °C -13.4 °C 33524.8 hPa WSW 9 km/h 9 km/h 76 % 0 mm
12:04 -11.1 °C -13.5 °C 33524.8 hPa WSW 12.7 km/h 12.7 km/h 75 % 0 mm
12:09 -11.1 °C -13.6 °C 33524.8 hPa SSW 9 km/h 9 km/h 74 % 0 mm
12:14 -11 °C -13.6 °C 33524.8 hPa SW 19.2 km/h 19.2 km/h 73 % 0 mm
12:19 -10.9 °C -13.8 °C 33524.8 hPa SW 15 km/h 15 km/h 71 % 0 mm
12:29 -10.9 °C -14.1 °C 33524.8 hPa SW 20.9 km/h 20.9 km/h 68 % 0 mm
12:34 -10.9 °C -14.3 °C 33524.8 hPa WSW 17.9 km/h 17.9 km/h 67 % 0 mm
12:44 -10.9 °C -14.4 °C 33524.8 hPa SSW 4.2 km/h 6.8 km/h 65 % 0 mm
12:54 -10.9 °C -14.5 °C 33524.8 hPa WSW 15 km/h 15 km/h 65 % 0 mm
12:59 -10.9 °C -14.4 °C 33524.8 hPa WSW 7.6 km/h 7.6 km/h 65 % 0 mm
13:04 -10.9 °C -14.6 °C 33524.8 hPa WNW 9 km/h 9 km/h 64 % 0 mm
13:09 -10.8 °C -14.5 °C 33524.8 hPa WNW 9 km/h 9 km/h 64 % 0 mm
13:14 -10.8 °C -14.5 °C 33524.8 hPa WSW 9 km/h 9 km/h 64 % 0 mm
13:19 -10.7 °C -14.4 °C 33524.8 hPa SW 11.9 km/h 11.9 km/h 64 % 0 mm
13:24 -10.7 °C -14.6 °C 33524.8 hPa WSW 11.9 km/h 11.9 km/h 63 % 0 mm
13:29 -10.7 °C -14.6 °C 33477.4 hPa SW 11.9 km/h 11.9 km/h 63 % 0 mm
13:34 -10.7 °C -14.5 °C 33477.4 hPa WSW 17.9 km/h 17.9 km/h 63 % 0 mm
13:44 -10.6 °C -14.7 °C 33524.8 hPa WSW 23.8 km/h 23.8 km/h 61 % 0 mm
13:49 -10.6 °C -14.9 °C 33524.8 hPa WNW 11.9 km/h 11.9 km/h 59 % 0 mm
13:54 -10.6 °C -15.1 °C 33524.8 hPa WSW 17.9 km/h 17.9 km/h 58 % 0 mm
13:59 -10.6 °C -15.2 °C 33524.8 hPa WNW 23.8 km/h 23.8 km/h 57 % 0 mm
14:04 -10.5 °C -15.1 °C 33524.8 hPa WNW 15 km/h 15 km/h 57 % 0 mm
14:09 -10.4 °C -15.1 °C 33524.8 hPa WSW 31.4 km/h 31.4 km/h 57 % 0 mm
14:14 -10.4 °C -15.2 °C 33524.8 hPa WSW 11.9 km/h 11.9 km/h 56 % 0 mm
14:19 -10.4 °C -15.2 °C 33524.8 hPa WSW 11.9 km/h 11.9 km/h 56 % 0 mm
14:34 -10.6 °C -15.3 °C 33545.1 hPa West 9.8 km/h 9.8 km/h 56 % 0 mm
14:44 -10.7 °C -15.6 °C 33524.8 hPa WSW 14.5 km/h 14.5 km/h 55 % 0 mm
14:54 -10.7 °C -15.8 °C 33524.8 hPa SW 15 km/h 15 km/h 54 % 0 mm
14:59 -10.7 °C -15.8 °C 33545.1 hPa WSW 23.8 km/h 23.8 km/h 54 % 0 mm
15:04 -10.8 °C -15.8 °C 33545.1 hPa SW 17.9 km/h 17.9 km/h 54 % 0 mm
15:09 -10.8 °C -15.8 °C 33545.1 hPa West 23.8 km/h 23.8 km/h 54 % 0 mm
15:14 -10.8 °C -15.8 °C 33545.1 hPa West 15 km/h 15 km/h 54 % 0 mm
15:19 -10.8 °C -15.8 °C 33545.1 hPa NW 20.9 km/h 20.9 km/h 54 % 0 mm
15:24 -10.8 °C -15.8 °C 33545.1 hPa SW 17.9 km/h 17.9 km/h 54 % 0 mm
15:29 -10.8 °C -15.8 °C 33582.3 hPa SW 9 km/h 9 km/h 54 % 0 mm
15:34 -10.8 °C -15.9 °C 33582.3 hPa WSW 10.3 km/h 10.3 km/h 54 % 0 mm
15:39 -10.9 °C -15.9 °C 33582.3 hPa West 15 km/h 15 km/h 54 % 0 mm
15:44 -10.9 °C -15.9 °C 33582.3 hPa SW 15 km/h 15 km/h 54 % 0 mm
15:54 -10.9 °C -16 °C 33582.3 hPa West 20.9 km/h 20.9 km/h 54 % 0 mm
15:59 -10.7 °C -15.8 °C 33582.3 hPa West 11.9 km/h 11.9 km/h 54 % 0 mm
16:04 -10.6 °C -15.6 °C 33582.3 hPa SW 11.9 km/h 11.9 km/h 54 % 0 mm
16:09 -10.5 °C -15.6 °C 33582.3 hPa WNW 20.9 km/h 20.9 km/h 54 % 0 mm
16:19 -10.7 °C -15.9 °C 33582.3 hPa WSW 17.9 km/h 17.9 km/h 53 % 0 mm
16:29 -10.7 °C -15.9 °C 33616.2 hPa WSW 9 km/h 9 km/h 53 % 0 mm
16:34 -10.9 °C -16.1 °C 33616.2 hPa West 17.9 km/h 17.9 km/h 53 % 0 mm
16:39 -11.1 °C -16.2 °C 33616.2 hPa WSW 17.9 km/h 17.9 km/h 53 % 0 mm
16:44 -11.2 °C -16.3 °C 33616.2 hPa West 11.9 km/h 11.9 km/h 53 % 0 mm
16:49 -11.2 °C -16.4 °C 33616.2 hPa West 15.3 km/h 15.3 km/h 53 % 0 mm
16:54 -11.2 °C -16.4 °C 33616.2 hPa SE 9.8 km/h 11.1 km/h 53 % 0 mm
16:59 -11.2 °C -16.4 °C 33650.1 hPa WSW 9.8 km/h 10.3 km/h 53 % 0 mm
17:04 -11.3 °C -16.4 °C 33650.1 hPa SSW 16.1 km/h 16.1 km/h 53 % 0 mm
17:09 -11.3 °C -16.5 °C 33650.1 hPa WSW 9 km/h 9 km/h 53 % 0 mm
17:14 -11.4 °C -16.6 °C 33650.1 hPa WSW 11.1 km/h 11.1 km/h 53 % 0 mm
17:19 -11.6 °C -16.7 °C 33650.1 hPa WNW 11.9 km/h 11.9 km/h 53 % 0 mm
17:24 -11.6 °C -16.7 °C 33650.1 hPa SW 11.9 km/h 11.9 km/h 53 % 0 mm
17:34 -11.7 °C -16.8 °C 33650.1 hPa West 6.3 km/h 6.8 km/h 53 % 0 mm
17:39 -11.7 °C -16.8 °C 33650.1 hPa West 17.9 km/h 17.9 km/h 53 % 0 mm
17:44 -11.8 °C -16.9 °C 33683.9 hPa SW 9 km/h 9 km/h 53 % 0 mm
17:49 -11.9 °C -17 °C 33683.9 hPa West 6 km/h 6 km/h 53 % 0 mm
17:54 -11.9 °C -17.1 °C 33683.9 hPa WSW 3.1 km/h   53 % 0 mm
17:59 -12 °C -17.1 °C 33683.9 hPa West 6.8 km/h 8.5 km/h 53 % 0 mm
18:09 -12.1 °C -17.2 °C 33683.9 hPa SW 7.6 km/h 7.6 km/h 53 % 0 mm
18:20 -13.8 °C -18.1 °C 33924.3 hPa Calm   7.7 km/h 58 % 0 mm
18:24 -12.2 °C -17.3 °C 33717.8 hPa West 6 km/h 6 km/h 53 % 0 mm
18:34 -12.3 °C -17.4 °C 33717.8 hPa WSW 3.1 km/h 3.1 km/h 53 % 0 mm
18:39 -12.4 °C -17.4 °C 33717.8 hPa Calm     54 % 0 mm
18:44 -12.6 °C -17.4 °C 33717.8 hPa Calm   3.7 km/h 54 % 0 mm
18:49 -12.6 °C -17.6 °C 33717.8 hPa Calm     54 % 0 mm
18:50 -14 °C -18.2 °C 33924.3 hPa Calm   7.7 km/h 59 % 0 mm
18:54 -12.7 °C -17.6 °C 33717.8 hPa Calm     54 % 0 mm
18:59 -12.7 °C -17.6 °C 33717.8 hPa SSE 4.2 km/h 4.2 km/h 54 % 0 mm
19:00 -13.9 °C -18.1 °C 33924.3 hPa West 5.1 km/h 5.1 km/h 59 % 0 mm
19:04 -12.6 °C -17.4 °C 33717.8 hPa ESE 6.3 km/h 6.8 km/h 54 % 0 mm
19:10 -13.9 °C -18.1 °C 33958.2 hPa WSW 5.1 km/h 7.7 km/h 59 % 0 mm
19:19 -12.8 °C -17.7 °C 33751.6 hPa NW 6 km/h 6 km/h 54 % 0 mm
19:20 -13.8 °C -18 °C 33958.2 hPa WSW 7.7 km/h 10.3 km/h 59 % 0 mm
19:24 -12.9 °C -17.7 °C 33751.6 hPa NE 4.2 km/h 4.2 km/h 55 % 0 mm
19:30 -13.9 °C -18.1 °C 33958.2 hPa WSW 5.1 km/h 10.3 km/h 59 % 0 mm
19:34 -13.1 °C -17.8 °C 33751.6 hPa WSW 6 km/h 6 km/h 55 % 0 mm
19:39 -13.1 °C -17.8 °C 33751.6 hPa West 6 km/h 6 km/h 55 % 0 mm
19:40 -14.2 °C -18.2 °C 33958.2 hPa WSW 5.1 km/h 7.7 km/h 60 % 0 mm
19:44 -13.1 °C -17.8 °C 33788.9 hPa WNW 6 km/h 6 km/h 55 % 0 mm
19:49 -13.1 °C -17.8 °C 33788.9 hPa WNW 6.3 km/h 6.3 km/h 55 % 0 mm
19:50 -14.2 °C -18.2 °C 33992.1 hPa WSW 7.7 km/h 7.7 km/h 60 % 0 mm
19:59 -12.9 °C -17.7 °C 33788.9 hPa WSW 11.9 km/h 11.9 km/h 55 % 0 mm
20:00 -13.9 °C -17.9 °C 33992.1 hPa West 12.9 km/h 12.9 km/h 60 % 0 mm
20:09 -12.8 °C -17.6 °C 33788.9 hPa West 6.3 km/h 6.8 km/h 55 % 0 mm
20:10 -13.9 °C -17.9 °C 33992.1 hPa WSW 5.1 km/h 15.6 km/h 60 % 0 mm
20:14 -12.8 °C -17.6 °C 33788.9 hPa West 6.3 km/h 6.8 km/h 55 % 0 mm
20:19 -12.8 °C -17.7 °C 33788.9 hPa NW 6 km/h   54 % 0 mm
20:20 -13.9 °C -17.9 °C 33992.1 hPa WSW 7.7 km/h 10.3 km/h 60 % 0 mm
20:24 -12.8 °C -17.7 °C 33788.9 hPa WNW 3.7 km/h   54 % 0 mm
20:35 -12.9 °C -17.8 °C 33822.8 hPa WNW 4.2 km/h 4.2 km/h 54 % 0 mm
20:45 -12.9 °C -17.8 °C 33822.8 hPa NW 6.3 km/h 6.3 km/h 54 % 0 mm
20:50 -12.9 °C -17.8 °C 33822.8 hPa West 6.3 km/h 6.3 km/h 54 % 0 mm
20:55 -12.9 °C -17.8 °C 33822.8 hPa West 6 km/h   54 % 0 mm
21:00 -12.8 °C -17.7 °C 33822.8 hPa WSW 15 km/h 15 km/h 54 % 0 mm
21:05 -12.8 °C -17.7 °C 33822.8 hPa WSW 11.9 km/h 11.9 km/h 54 % 0 mm
21:10 -14.3 °C -18.2 °C 34063.2 hPa West 2.6 km/h 7.7 km/h 61 % 0 mm
21:15 -12.8 °C -17.7 °C 33822.8 hPa WSW 10.3 km/h 10.3 km/h 54 % 0 mm
21:20 -12.8 °C -17.7 °C 33822.8 hPa WSW 9 km/h 9 km/h 54 % 0 mm
21:25 -12.8 °C -17.7 °C 33822.8 hPa West 6.8 km/h 6.8 km/h 54 % 0 mm
21:30 -12.9 °C -17.8 °C 33856.6 hPa WSW 11.9 km/h 11.9 km/h 54 % 0 mm
21:35 -12.9 °C -17.8 °C 33856.6 hPa WSW 9 km/h 9 km/h 54 % 0 mm
21:40 -13.2 °C -18.1 °C 33856.6 hPa WSW 6 km/h 6 km/h 54 % 0 mm
21:50 -13.5 °C -18.2 °C 33856.6 hPa West 6.3 km/h 6.3 km/h 55 % 0 mm
21:55 -13.3 °C -18.1 °C 33856.6 hPa WSW 9.8 km/h 9.8 km/h 55 % 0 mm
22:00 -14.7 °C -18.3 °C 34063.2 hPa Calm   5.1 km/h 63 % 0 mm
22:05 -13.3 °C -18.1 °C 33822.8 hPa WNW 6 km/h 6 km/h 55 % 0 mm
22:10 -14.7 °C -18.3 °C 34063.2 hPa NW 2.6 km/h 5.1 km/h 63 % 0 mm
22:15 -13.4 °C -18.1 °C 33856.6 hPa West 6 km/h 6 km/h 55 % 0 mm
22:20 -14.7 °C -18.3 °C 34063.2 hPa Calm   5.1 km/h 63 % 0 mm
22:25 -13.3 °C -17.9 °C 33856.6 hPa West 6.3 km/h 6.3 km/h 56 % 0 mm
22:26 -13.3 °C -17.9 °C 33856.6 hPa West 6.8 km/h 6.8 km/h 56 % 0 mm
22:31 -13.3 °C -17.9 °C 33856.6 hPa WSW 9 km/h 9 km/h 56 % 0 mm
22:36 -13.3 °C -17.9 °C 33856.6 hPa WSW 9 km/h 9 km/h 56 % 0 mm
22:41 -13.4 °C -17.9 °C 33856.6 hPa WSW 9 km/h 9 km/h 56 % 0 mm
22:50 -14.8 °C -18.4 °C 34063.2 hPa West 2.6 km/h 5.1 km/h 63 % 0 mm
22:51 -13.6 °C -18.1 °C 33856.6 hPa WSW 7.6 km/h 8 km/h 56 % 0 mm
23:00 -14.9 °C -18.4 °C 34063.2 hPa Calm   5.1 km/h 64 % 0 mm
23:06 -13.2 °C -17.8 °C 33890.5 hPa WSW 7.6 km/h 8 km/h 56 % 0 mm
23:10 -15 °C -18.6 °C 34063.2 hPa West 2.6 km/h 5.1 km/h 63 % 0 mm
23:11 -13.2 °C -17.8 °C 33890.5 hPa WSW 7.6 km/h 8 km/h 56 % 0 mm
23:16 -13.2 °C -17.8 °C 33890.5 hPa WSW 7.6 km/h 8 km/h 56 % 0 mm
23:20 -15 °C -18.6 °C 34097 hPa West 2.6 km/h 7.7 km/h 63 % 0 mm
23:30 -14.9 °C -18.6 °C 34097 hPa WSW 7.7 km/h 12.9 km/h 63 % 0 mm
23:31 -13.9 °C -18.4 °C 33890.5 hPa NNE 6.8 km/h 7.6 km/h 56 % 0 mm
23:36 -13.9 °C -18.4 °C 33890.5 hPa NNE 6.8 km/h 7.6 km/h 57 % 0 mm
23:41 -14 °C -18.6 °C 33890.5 hPa NNE 6.8 km/h 7.6 km/h 56 % 0 mm
23:50 -15.2 °C -18.7 °C 34097 hPa Calm   5.1 km/h 64 % 0 mm
23:51 -13.9 °C -18.3 °C 33924.3 hPa West 6 km/h 6 km/h 57 % 0 mm
23:56 -13.8 °C -18.2 °C 33924.3 hPa West 9 km/h 9 km/h 57 % 0 mm
Meteo Sesrovires
Elogis d' Weather Underground - 1.5 mb

Guio original per  Jim McMurry - jmcmurry@mwt.net Adaptat per a la plantilla per  Wim van der Kuil - Leuven-Template.eu

Trobareu la nostra informacio del temps tambe a:

Weather Underground

AWEKAS